sensor_id;sensor_type;location;lat;lon;timestamp;temperature;humidity
5394;DHT22;2720;52.396;10.064;2023-05-07T00:00:49;9.20;99.90
5394;DHT22;2720;52.396;10.064;2023-05-07T00:03:16;9.10;99.90
5394;DHT22;2720;52.396;10.064;2023-05-07T00:05:44;9.10;99.90
5394;DHT22;2720;52.396;10.064;2023-05-07T00:08:12;9.10;99.90
5394;DHT22;2720;52.396;10.064;2023-05-07T00:10:39;9.10;99.90
5394;DHT22;2720;52.396;10.064;2023-05-07T00:13:06;9.10;99.90
5394;DHT22;2720;52.396;10.064;2023-05-07T00:15:34;9.10;99.90
5394;DHT22;2720;52.396;10.064;2023-05-07T00:18:01;9.10;99.90
5394;DHT22;2720;52.396;10.064;2023-05-07T00:20:28;9.10;99.90
5394;DHT22;2720;52.396;10.064;2023-05-07T00:22:55;9.10;99.90
5394;DHT22;2720;52.396;10.064;2023-05-07T00:25:22;9.10;99.90
5394;DHT22;2720;52.396;10.064;2023-05-07T00:27:49;9.10;99.90
5394;DHT22;2720;52.396;10.064;2023-05-07T00:30:16;9.10;99.90
5394;DHT22;2720;52.396;10.064;2023-05-07T00:32:44;9.10;99.90
5394;DHT22;2720;52.396;10.064;2023-05-07T00:35:11;9.10;99.90
5394;DHT22;2720;52.396;10.064;2023-05-07T00:37:38;9.10;99.90
5394;DHT22;2720;52.396;10.064;2023-05-07T00:40:07;9.00;99.90
5394;DHT22;2720;52.396;10.064;2023-05-07T00:42:34;9.00;99.90
5394;DHT22;2720;52.396;10.064;2023-05-07T00:45:01;9.00;99.90
5394;DHT22;2720;52.396;10.064;2023-05-07T00:47:28;9.00;99.90
5394;DHT22;2720;52.396;10.064;2023-05-07T00:49:57;9.00;99.90
5394;DHT22;2720;52.396;10.064;2023-05-07T00:52:25;9.00;99.90
5394;DHT22;2720;52.396;10.064;2023-05-07T00:54:52;9.00;99.90
5394;DHT22;2720;52.396;10.064;2023-05-07T00:57:21;9.00;99.90
5394;DHT22;2720;52.396;10.064;2023-05-07T00:59:48;9.00;99.90
5394;DHT22;2720;52.396;10.064;2023-05-07T01:02:15;9.10;99.90
5394;DHT22;2720;52.396;10.064;2023-05-07T01:04:43;9.00;99.90
5394;DHT22;2720;52.396;10.064;2023-05-07T01:07:11;9.00;99.90
5394;DHT22;2720;52.396;10.064;2023-05-07T01:09:39;9.00;99.90
5394;DHT22;2720;52.396;10.064;2023-05-07T01:12:07;9.00;99.90
5394;DHT22;2720;52.396;10.064;2023-05-07T01:14:35;9.10;99.90
5394;DHT22;2720;52.396;10.064;2023-05-07T01:17:02;9.10;99.90
5394;DHT22;2720;52.396;10.064;2023-05-07T01:19:29;9.10;99.90
5394;DHT22;2720;52.396;10.064;2023-05-07T01:22:01;9.10;99.90
5394;DHT22;2720;52.396;10.064;2023-05-07T01:24:32;9.10;99.90
5394;DHT22;2720;52.396;10.064;2023-05-07T01:26:59;9.10;99.90
5394;DHT22;2720;52.396;10.064;2023-05-07T01:29:27;9.10;99.90
5394;DHT22;2720;52.396;10.064;2023-05-07T01:31:55;9.10;99.90
5394;DHT22;2720;52.396;10.064;2023-05-07T01:34:24;9.10;99.90
5394;DHT22;2720;52.396;10.064;2023-05-07T01:36:52;9.10;99.90
5394;DHT22;2720;52.396;10.064;2023-05-07T01:39:21;9.10;99.90
5394;DHT22;2720;52.396;10.064;2023-05-07T01:41:51;9.10;99.90
5394;DHT22;2720;52.396;10.064;2023-05-07T01:44:18;9.10;99.90
5394;DHT22;2720;52.396;10.064;2023-05-07T01:46:46;9.10;99.90
5394;DHT22;2720;52.396;10.064;2023-05-07T01:49:14;9.10;99.90
5394;DHT22;2720;52.396;10.064;2023-05-07T01:51:41;9.10;99.90
5394;DHT22;2720;52.396;10.064;2023-05-07T01:54:09;9.10;99.90
5394;DHT22;2720;52.396;10.064;2023-05-07T01:56:36;9.20;99.90
5394;DHT22;2720;52.396;10.064;2023-05-07T01:59:04;9.20;99.90
5394;DHT22;2720;52.396;10.064;2023-05-07T02:01:31;9.20;99.90
5394;DHT22;2720;52.396;10.064;2023-05-07T02:03:58;9.20;99.90
5394;DHT22;2720;52.396;10.064;2023-05-07T02:06:25;9.20;99.90
5394;DHT22;2720;52.396;10.064;2023-05-07T02:08:52;9.10;99.90
5394;DHT22;2720;52.396;10.064;2023-05-07T02:11:19;9.10;99.90
5394;DHT22;2720;52.396;10.064;2023-05-07T02:13:46;9.20;99.90
5394;DHT22;2720;52.396;10.064;2023-05-07T02:16:14;9.10;99.90
5394;DHT22;2720;52.396;10.064;2023-05-07T02:18:41;9.20;99.90
5394;DHT22;2720;52.396;10.064;2023-05-07T02:21:08;9.10;99.90
5394;DHT22;2720;52.396;10.064;2023-05-07T02:23:35;9.10;99.90
5394;DHT22;2720;52.396;10.064;2023-05-07T02:26:03;9.10;99.90
5394;DHT22;2720;52.396;10.064;2023-05-07T02:28:31;9.00;99.90
5394;DHT22;2720;52.396;10.064;2023-05-07T02:31:01;9.00;99.90
5394;DHT22;2720;52.396;10.064;2023-05-07T02:33:30;9.00;99.90
5394;DHT22;2720;52.396;10.064;2023-05-07T02:35:59;9.00;99.90
5394;DHT22;2720;52.396;10.064;2023-05-07T02:38:31;9.00;99.90
5394;DHT22;2720;52.396;10.064;2023-05-07T02:40:58;9.00;99.90
5394;DHT22;2720;52.396;10.064;2023-05-07T02:43:25;9.00;99.90
5394;DHT22;2720;52.396;10.064;2023-05-07T02:46:00;9.00;99.90
5394;DHT22;2720;52.396;10.064;2023-05-07T02:48:27;9.00;99.90
5394;DHT22;2720;52.396;10.064;2023-05-07T02:50:55;9.00;99.90
5394;DHT22;2720;52.396;10.064;2023-05-07T02:53:22;9.00;99.90
5394;DHT22;2720;52.396;10.064;2023-05-07T02:55:51;9.00;99.90
5394;DHT22;2720;52.396;10.064;2023-05-07T02:58:18;9.00;99.90
5394;DHT22;2720;52.396;10.064;2023-05-07T03:00:45;9.00;99.90
5394;DHT22;2720;52.396;10.064;2023-05-07T03:03:13;9.00;99.90
5394;DHT22;2720;52.396;10.064;2023-05-07T03:05:40;9.00;99.90
5394;DHT22;2720;52.396;10.064;2023-05-07T03:08:09;9.00;99.90
5394;DHT22;2720;52.396;10.064;2023-05-07T03:10:36;9.00;99.90
5394;DHT22;2720;52.396;10.064;2023-05-07T03:13:03;8.90;99.90
5394;DHT22;2720;52.396;10.064;2023-05-07T03:15:31;8.90;99.90
5394;DHT22;2720;52.396;10.064;2023-05-07T03:17:57;8.90;99.90
5394;DHT22;2720;52.396;10.064;2023-05-07T03:20:24;8.90;99.90
5394;DHT22;2720;52.396;10.064;2023-05-07T03:22:51;9.00;99.90
5394;DHT22;2720;52.396;10.064;2023-05-07T03:25:20;9.00;99.90
5394;DHT22;2720;52.396;10.064;2023-05-07T03:27:47;9.00;99.90
5394;DHT22;2720;52.396;10.064;2023-05-07T03:30:14;8.90;99.90
5394;DHT22;2720;52.396;10.064;2023-05-07T03:32:41;8.90;99.90
5394;DHT22;2720;52.396;10.064;2023-05-07T03:35:08;8.90;99.90
5394;DHT22;2720;52.396;10.064;2023-05-07T03:37:35;8.90;99.90
5394;DHT22;2720;52.396;10.064;2023-05-07T03:40:02;8.90;99.90
5394;DHT22;2720;52.396;10.064;2023-05-07T03:42:31;8.90;99.90
5394;DHT22;2720;52.396;10.064;2023-05-07T03:44:58;8.90;99.90
5394;DHT22;2720;52.396;10.064;2023-05-07T03:47:25;8.90;99.90
5394;DHT22;2720;52.396;10.064;2023-05-07T03:49:51;8.70;99.90
5394;DHT22;2720;52.396;10.064;2023-05-07T03:52:20;8.90;99.90
5394;DHT22;2720;52.396;10.064;2023-05-07T03:54:51;8.80;99.90
5394;DHT22;2720;52.396;10.064;2023-05-07T03:57:18;8.90;99.90
5394;DHT22;2720;52.396;10.064;2023-05-07T03:59:47;8.80;99.90
5394;DHT22;2720;52.396;10.064;2023-05-07T04:02:14;8.80;99.90
5394;DHT22;2720;52.396;10.064;2023-05-07T04:04:41;8.90;99.90
5394;DHT22;2720;52.396;10.064;2023-05-07T04:07:08;8.80;99.90
5394;DHT22;2720;52.396;10.064;2023-05-07T04:09:35;8.80;99.90
5394;DHT22;2720;52.396;10.064;2023-05-07T04:12:02;8.80;99.90
5394;DHT22;2720;52.396;10.064;2023-05-07T04:14:32;8.80;99.90
5394;DHT22;2720;52.396;10.064;2023-05-07T04:17:00;8.80;99.90
5394;DHT22;2720;52.396;10.064;2023-05-07T04:19:28;8.80;99.90
5394;DHT22;2720;52.396;10.064;2023-05-07T04:21:55;8.80;99.90
5394;DHT22;2720;52.396;10.064;2023-05-07T04:24:22;8.80;99.90
5394;DHT22;2720;52.396;10.064;2023-05-07T04:26:49;8.80;99.90
5394;DHT22;2720;52.396;10.064;2023-05-07T04:29:16;8.80;99.90
5394;DHT22;2720;52.396;10.064;2023-05-07T04:31:43;8.80;99.90
5394;DHT22;2720;52.396;10.064;2023-05-07T04:34:12;8.80;99.90
5394;DHT22;2720;52.396;10.064;2023-05-07T04:36:39;8.80;99.90
5394;DHT22;2720;52.396;10.064;2023-05-07T04:39:07;8.80;99.90
5394;DHT22;2720;52.396;10.064;2023-05-07T04:41:35;8.80;99.90
5394;DHT22;2720;52.396;10.064;2023-05-07T04:44:02;8.80;99.90
5394;DHT22;2720;52.396;10.064;2023-05-07T04:46:32;8.80;99.90
5394;DHT22;2720;52.396;10.064;2023-05-07T04:48:59;8.80;99.90
5394;DHT22;2720;52.396;10.064;2023-05-07T04:51:27;8.80;99.90
5394;DHT22;2720;52.396;10.064;2023-05-07T04:53:54;8.80;99.90
5394;DHT22;2720;52.396;10.064;2023-05-07T04:56:21;8.80;99.90
5394;DHT22;2720;52.396;10.064;2023-05-07T04:58:48;8.80;99.90
5394;DHT22;2720;52.396;10.064;2023-05-07T05:01:15;8.80;99.90
5394;DHT22;2720;52.396;10.064;2023-05-07T05:03:42;8.80;99.90
5394;DHT22;2720;52.396;10.064;2023-05-07T05:06:09;8.80;99.90
5394;DHT22;2720;52.396;10.064;2023-05-07T05:08:37;8.80;99.90
5394;DHT22;2720;52.396;10.064;2023-05-07T05:11:04;8.80;99.90
5394;DHT22;2720;52.396;10.064;2023-05-07T05:13:31;8.80;99.90
5394;DHT22;2720;52.396;10.064;2023-05-07T05:15:58;8.80;99.90
5394;DHT22;2720;52.396;10.064;2023-05-07T05:18:25;8.80;99.90
5394;DHT22;2720;52.396;10.064;2023-05-07T05:20:52;8.80;99.90
5394;DHT22;2720;52.396;10.064;2023-05-07T05:23:19;8.90;99.90
5394;DHT22;2720;52.396;10.064;2023-05-07T05:25:47;8.90;99.90
5394;DHT22;2720;52.396;10.064;2023-05-07T05:28:14;8.90;99.90
5394;DHT22;2720;52.396;10.064;2023-05-07T05:30:41;9.00;99.90
5394;DHT22;2720;52.396;10.064;2023-05-07T05:33:08;9.10;99.90
5394;DHT22;2720;52.396;10.064;2023-05-07T05:35:35;9.20;99.90
5394;DHT22;2720;52.396;10.064;2023-05-07T05:38:02;9.20;99.90
5394;DHT22;2720;52.396;10.064;2023-05-07T05:40:29;9.20;99.90
5394;DHT22;2720;52.396;10.064;2023-05-07T05:42:57;9.20;99.90
5394;DHT22;2720;52.396;10.064;2023-05-07T05:45:24;9.20;99.90
5394;DHT22;2720;52.396;10.064;2023-05-07T05:47:51;9.20;99.90
5394;DHT22;2720;52.396;10.064;2023-05-07T05:50:18;9.20;99.90
5394;DHT22;2720;52.396;10.064;2023-05-07T05:52:45;9.40;99.90
5394;DHT22;2720;52.396;10.064;2023-05-07T05:55:13;9.30;99.90
5394;DHT22;2720;52.396;10.064;2023-05-07T05:57:40;9.50;99.90
5394;DHT22;2720;52.396;10.064;2023-05-07T06:00:09;9.70;99.90
5394;DHT22;2720;52.396;10.064;2023-05-07T06:02:37;9.90;99.90
5394;DHT22;2720;52.396;10.064;2023-05-07T06:05:04;10.00;99.90
5394;DHT22;2720;52.396;10.064;2023-05-07T06:07:31;10.10;99.90
5394;DHT22;2720;52.396;10.064;2023-05-07T06:09:58;10.10;99.90
5394;DHT22;2720;52.396;10.064;2023-05-07T06:12:25;10.10;99.90
5394;DHT22;2720;52.396;10.064;2023-05-07T06:14:52;10.10;99.90
5394;DHT22;2720;52.396;10.064;2023-05-07T06:17:20;10.10;99.90
5394;DHT22;2720;52.396;10.064;2023-05-07T06:19:47;10.20;99.90
5394;DHT22;2720;52.396;10.064;2023-05-07T06:22:14;10.20;99.90
5394;DHT22;2720;52.396;10.064;2023-05-07T06:24:41;10.10;99.90
5394;DHT22;2720;52.396;10.064;2023-05-07T06:27:08;10.10;99.90
5394;DHT22;2720;52.396;10.064;2023-05-07T06:29:35;10.00;99.90
5394;DHT22;2720;52.396;10.064;2023-05-07T06:32:08;10.00;99.90
5394;DHT22;2720;52.396;10.064;2023-05-07T06:34:38;10.10;99.90
5394;DHT22;2720;52.396;10.064;2023-05-07T06:37:06;10.10;99.90
5394;DHT22;2720;52.396;10.064;2023-05-07T06:39:33;10.10;99.90
5394;DHT22;2720;52.396;10.064;2023-05-07T06:42:00;10.10;99.90
5394;DHT22;2720;52.396;10.064;2023-05-07T06:44:27;10.10;99.90
5394;DHT22;2720;52.396;10.064;2023-05-07T06:46:54;10.00;99.90
5394;DHT22;2720;52.396;10.064;2023-05-07T06:49:21;10.00;99.90
5394;DHT22;2720;52.396;10.064;2023-05-07T06:51:50;10.10;99.90
5394;DHT22;2720;52.396;10.064;2023-05-07T06:54:17;10.10;99.90
5394;DHT22;2720;52.396;10.064;2023-05-07T06:56:43;10.00;99.90
5394;DHT22;2720;52.396;10.064;2023-05-07T06:59:10;10.10;99.90
5394;DHT22;2720;52.396;10.064;2023-05-07T07:01:37;10.70;99.90
5394;DHT22;2720;52.396;10.064;2023-05-07T07:04:04;10.20;99.90
5394;DHT22;2720;52.396;10.064;2023-05-07T07:06:31;10.20;99.90
5394;DHT22;2720;52.396;10.064;2023-05-07T07:09:00;10.30;99.90
5394;DHT22;2720;52.396;10.064;2023-05-07T07:11:27;10.50;99.90
5394;DHT22;2720;52.396;10.064;2023-05-07T07:13:54;10.50;99.90
5394;DHT22;2720;52.396;10.064;2023-05-07T07:16:21;10.50;99.90
5394;DHT22;2720;52.396;10.064;2023-05-07T07:18:48;10.60;99.90
5394;DHT22;2720;52.396;10.064;2023-05-07T07:21:15;10.60;99.90
5394;DHT22;2720;52.396;10.064;2023-05-07T07:23:42;10.70;99.90
5394;DHT22;2720;52.396;10.064;2023-05-07T07:26:10;10.70;99.90
5394;DHT22;2720;52.396;10.064;2023-05-07T07:28:42;10.70;99.90
5394;DHT22;2720;52.396;10.064;2023-05-07T07:31:09;10.50;99.90
5394;DHT22;2720;52.396;10.064;2023-05-07T07:33:36;10.60;99.90
5394;DHT22;2720;52.396;10.064;2023-05-07T07:36:04;10.70;99.90
5394;DHT22;2720;52.396;10.064;2023-05-07T07:38:31;10.70;99.90
5394;DHT22;2720;52.396;10.064;2023-05-07T07:40:58;10.80;99.90
5394;DHT22;2720;52.396;10.064;2023-05-07T07:43:27;10.80;99.90
5394;DHT22;2720;52.396;10.064;2023-05-07T07:45:54;10.90;99.90
5394;DHT22;2720;52.396;10.064;2023-05-07T07:48:21;10.80;99.90
5394;DHT22;2720;52.396;10.064;2023-05-07T07:50:49;10.80;99.90
5394;DHT22;2720;52.396;10.064;2023-05-07T07:53:16;10.90;99.90
5394;DHT22;2720;52.396;10.064;2023-05-07T07:55:43;11.00;99.90
5394;DHT22;2720;52.396;10.064;2023-05-07T07:58:11;11.00;99.90
5394;DHT22;2720;52.396;10.064;2023-05-07T08:00:39;11.20;99.90
5394;DHT22;2720;52.396;10.064;2023-05-07T08:03:08;11.40;99.90
5394;DHT22;2720;52.396;10.064;2023-05-07T08:05:35;11.40;99.90
5394;DHT22;2720;52.396;10.064;2023-05-07T08:08:04;11.10;99.90
5394;DHT22;2720;52.396;10.064;2023-05-07T08:10:31;10.90;99.90
5394;DHT22;2720;52.396;10.064;2023-05-07T08:13:00;10.90;99.90
5394;DHT22;2720;52.396;10.064;2023-05-07T08:15:27;11.10;99.90
5394;DHT22;2720;52.396;10.064;2023-05-07T08:17:55;11.30;99.90
5394;DHT22;2720;52.396;10.064;2023-05-07T08:20:23;11.40;99.90
5394;DHT22;2720;52.396;10.064;2023-05-07T08:22:51;11.50;99.90
5394;DHT22;2720;52.396;10.064;2023-05-07T08:25:18;11.50;99.90
5394;DHT22;2720;52.396;10.064;2023-05-07T08:27:45;11.50;99.90
5394;DHT22;2720;52.396;10.064;2023-05-07T08:30:13;11.70;99.90
5394;DHT22;2720;52.396;10.064;2023-05-07T08:32:40;11.90;99.90
5394;DHT22;2720;52.396;10.064;2023-05-07T08:35:09;12.10;99.90
5394;DHT22;2720;52.396;10.064;2023-05-07T08:37:36;12.00;99.90
5394;DHT22;2720;52.396;10.064;2023-05-07T08:40:03;11.80;99.90
5394;DHT22;2720;52.396;10.064;2023-05-07T08:42:33;11.60;99.90
5394;DHT22;2720;52.396;10.064;2023-05-07T08:45:03;11.80;99.90
5394;DHT22;2720;52.396;10.064;2023-05-07T08:47:38;11.90;99.90
5394;DHT22;2720;52.396;10.064;2023-05-07T08:50:09;12.10;99.90
5394;DHT22;2720;52.396;10.064;2023-05-07T08:52:36;12.20;99.90
5394;DHT22;2720;52.396;10.064;2023-05-07T08:55:04;12.10;99.90
5394;DHT22;2720;52.396;10.064;2023-05-07T08:57:31;12.20;99.90
5394;DHT22;2720;52.396;10.064;2023-05-07T08:59:58;12.20;99.90
5394;DHT22;2720;52.396;10.064;2023-05-07T09:02:25;12.20;99.90
5394;DHT22;2720;52.396;10.064;2023-05-07T09:04:52;12.30;99.90
5394;DHT22;2720;52.396;10.064;2023-05-07T09:07:21;12.10;99.90
5394;DHT22;2720;52.396;10.064;2023-05-07T09:09:49;12.00;99.90
5394;DHT22;2720;52.396;10.064;2023-05-07T09:12:17;12.00;99.90
5394;DHT22;2720;52.396;10.064;2023-05-07T09:14:44;11.80;99.90
5394;DHT22;2720;52.396;10.064;2023-05-07T09:17:11;11.90;99.90
5394;DHT22;2720;52.396;10.064;2023-05-07T09:19:38;12.00;99.90
5394;DHT22;2720;52.396;10.064;2023-05-07T09:22:06;12.10;99.90
5394;DHT22;2720;52.396;10.064;2023-05-07T09:24:35;12.10;99.90
5394;DHT22;2720;52.396;10.064;2023-05-07T09:27:03;12.20;99.90
5394;DHT22;2720;52.396;10.064;2023-05-07T09:29:31;12.30;99.90
5394;DHT22;2720;52.396;10.064;2023-05-07T09:32:01;12.30;99.90
5394;DHT22;2720;52.396;10.064;2023-05-07T09:34:29;12.20;99.90
5394;DHT22;2720;52.396;10.064;2023-05-07T09:36:56;12.30;99.90
5394;DHT22;2720;52.396;10.064;2023-05-07T09:39:24;12.30;99.90
5394;DHT22;2720;52.396;10.064;2023-05-07T09:41:53;12.60;99.90
5394;DHT22;2720;52.396;10.064;2023-05-07T09:44:20;12.70;99.90
5394;DHT22;2720;52.396;10.064;2023-05-07T09:46:53;12.80;99.90
5394;DHT22;2720;52.396;10.064;2023-05-07T09:49:22;13.10;99.90
5394;DHT22;2720;52.396;10.064;2023-05-07T09:51:51;13.10;99.90
5394;DHT22;2720;52.396;10.064;2023-05-07T09:54:19;12.90;99.90
5394;DHT22;2720;52.396;10.064;2023-05-07T09:56:46;12.50;99.90
5394;DHT22;2720;52.396;10.064;2023-05-07T09:59:16;12.40;99.90
5394;DHT22;2720;52.396;10.064;2023-05-07T10:01:43;12.40;99.90
5394;DHT22;2720;52.396;10.064;2023-05-07T10:04:11;12.50;99.90
5394;DHT22;2720;52.396;10.064;2023-05-07T10:06:39;12.30;99.90
5394;DHT22;2720;52.396;10.064;2023-05-07T10:09:06;12.50;99.90
5394;DHT22;2720;52.396;10.064;2023-05-07T10:11:33;12.60;99.90
5394;DHT22;2720;52.396;10.064;2023-05-07T10:14:01;12.70;99.90
5394;DHT22;2720;52.396;10.064;2023-05-07T10:16:31;13.00;99.90
5394;DHT22;2720;52.396;10.064;2023-05-07T10:18:58;13.10;99.90
5394;DHT22;2720;52.396;10.064;2023-05-07T10:21:27;13.20;99.90
5394;DHT22;2720;52.396;10.064;2023-05-07T10:23:58;13.40;99.90
5394;DHT22;2720;52.396;10.064;2023-05-07T10:26:28;13.50;99.90
5394;DHT22;2720;52.396;10.064;2023-05-07T10:28:59;13.70;99.90
5394;DHT22;2720;52.396;10.064;2023-05-07T10:31:42;13.70;99.90
5394;DHT22;2720;52.396;10.064;2023-05-07T10:34:15;13.40;99.90
5394;DHT22;2720;52.396;10.064;2023-05-07T10:36:43;13.40;99.90
5394;DHT22;2720;52.396;10.064;2023-05-07T10:39:11;13.50;99.90
5394;DHT22;2720;52.396;10.064;2023-05-07T10:41:38;13.80;99.90
5394;DHT22;2720;52.396;10.064;2023-05-07T10:44:06;14.10;99.90
5394;DHT22;2720;52.396;10.064;2023-05-07T10:46:34;13.80;99.90
5394;DHT22;2720;52.396;10.064;2023-05-07T10:49:10;13.80;99.90
5394;DHT22;2720;52.396;10.064;2023-05-07T10:51:38;13.60;99.90
5394;DHT22;2720;52.396;10.064;2023-05-07T10:54:21;13.60;99.90
5394;DHT22;2720;52.396;10.064;2023-05-07T10:56:49;13.60;99.90
5394;DHT22;2720;52.396;10.064;2023-05-07T10:59:36;13.80;99.90
5394;DHT22;2720;52.396;10.064;2023-05-07T11:02:10;13.90;99.90
5394;DHT22;2720;52.396;10.064;2023-05-07T11:04:39;14.00;99.90
5394;DHT22;2720;52.396;10.064;2023-05-07T11:07:25;13.70;99.90
5394;DHT22;2720;52.396;10.064;2023-05-07T11:09:59;13.60;99.90
5394;DHT22;2720;52.396;10.064;2023-05-07T11:13:02;13.60;99.90
5394;DHT22;2720;52.396;10.064;2023-05-07T11:15:45;13.40;99.90
5394;DHT22;2720;52.396;10.064;2023-05-07T11:18:15;13.70;99.90
5394;DHT22;2720;52.396;10.064;2023-05-07T11:21:00;13.90;99.90
5394;DHT22;2720;52.396;10.064;2023-05-07T11:24:00;14.20;99.90
5394;DHT22;2720;52.396;10.064;2023-05-07T11:26:30;14.50;99.90
5394;DHT22;2720;52.396;10.064;2023-05-07T11:28:57;14.30;99.90
5394;DHT22;2720;52.396;10.064;2023-05-07T11:31:27;14.20;99.90
5394;DHT22;2720;52.396;10.064;2023-05-07T11:33:57;13.90;99.90
5394;DHT22;2720;52.396;10.064;2023-05-07T11:36:24;13.60;99.90
5394;DHT22;2720;52.396;10.064;2023-05-07T11:38:52;13.20;99.90
5394;DHT22;2720;52.396;10.064;2023-05-07T11:41:19;13.10;99.90
5394;DHT22;2720;52.396;10.064;2023-05-07T11:43:57;13.10;99.90
5394;DHT22;2720;52.396;10.064;2023-05-07T11:46:24;13.00;99.90
5394;DHT22;2720;52.396;10.064;2023-05-07T11:48:52;13.10;99.90
5394;DHT22;2720;52.396;10.064;2023-05-07T11:51:21;13.30;99.90
5394;DHT22;2720;52.396;10.064;2023-05-07T11:53:48;13.20;99.90
5394;DHT22;2720;52.396;10.064;2023-05-07T11:56:17;13.30;99.90
5394;DHT22;2720;52.396;10.064;2023-05-07T11:58:45;13.20;99.90
5394;DHT22;2720;52.396;10.064;2023-05-07T12:01:13;13.20;99.90
5394;DHT22;2720;52.396;10.064;2023-05-07T12:03:41;13.30;99.90
5394;DHT22;2720;52.396;10.064;2023-05-07T12:06:09;13.30;99.90
5394;DHT22;2720;52.396;10.064;2023-05-07T12:08:40;13.30;99.90
5394;DHT22;2720;52.396;10.064;2023-05-07T12:11:08;13.20;99.90
5394;DHT22;2720;52.396;10.064;2023-05-07T12:13:37;13.30;99.90
5394;DHT22;2720;52.396;10.064;2023-05-07T12:16:05;13.40;99.90
5394;DHT22;2720;52.396;10.064;2023-05-07T12:18:34;13.70;99.90
5394;DHT22;2720;52.396;10.064;2023-05-07T12:21:01;14.00;99.90
5394;DHT22;2720;52.396;10.064;2023-05-07T12:23:29;14.20;99.90
5394;DHT22;2720;52.396;10.064;2023-05-07T12:25:59;14.30;99.90
5394;DHT22;2720;52.396;10.064;2023-05-07T12:28:26;14.10;99.90
5394;DHT22;2720;52.396;10.064;2023-05-07T12:30:53;14.20;99.90
5394;DHT22;2720;52.396;10.064;2023-05-07T12:33:24;14.10;99.90
5394;DHT22;2720;52.396;10.064;2023-05-07T12:35:53;14.20;99.90
5394;DHT22;2720;52.396;10.064;2023-05-07T12:38:24;14.60;99.90
5394;DHT22;2720;52.396;10.064;2023-05-07T12:40:54;15.10;99.90
5394;DHT22;2720;52.396;10.064;2023-05-07T12:43:25;15.50;99.90
5394;DHT22;2720;52.396;10.064;2023-05-07T12:45:55;15.30;99.90
5394;DHT22;2720;52.396;10.064;2023-05-07T12:48:23;15.40;99.90
5394;DHT22;2720;52.396;10.064;2023-05-07T12:50:53;15.10;99.90
5394;DHT22;2720;52.396;10.064;2023-05-07T12:53:21;14.90;99.90
5394;DHT22;2720;52.396;10.064;2023-05-07T12:55:50;14.60;99.90
5394;DHT22;2720;52.396;10.064;2023-05-07T12:58:18;14.50;99.90
5394;DHT22;2720;52.396;10.064;2023-05-07T13:00:48;14.60;99.90
5394;DHT22;2720;52.396;10.064;2023-05-07T13:03:23;14.70;99.90
5394;DHT22;2720;52.396;10.064;2023-05-07T13:05:50;15.10;99.90
5394;DHT22;2720;52.396;10.064;2023-05-07T13:08:25;14.90;99.90
5394;DHT22;2720;52.396;10.064;2023-05-07T13:10:52;14.60;99.90
5394;DHT22;2720;52.396;10.064;2023-05-07T13:13:19;14.40;99.90
5394;DHT22;2720;52.396;10.064;2023-05-07T13:15:48;14.40;99.90
5394;DHT22;2720;52.396;10.064;2023-05-07T13:18:15;14.90;99.90
5394;DHT22;2720;52.396;10.064;2023-05-07T13:20:42;15.10;99.90
5394;DHT22;2720;52.396;10.064;2023-05-07T13:23:09;14.70;99.90
5394;DHT22;2720;52.396;10.064;2023-05-07T13:25:36;14.80;99.90
5394;DHT22;2720;52.396;10.064;2023-05-07T13:28:03;14.50;99.90
5394;DHT22;2720;52.396;10.064;2023-05-07T13:30:30;14.50;99.90
5394;DHT22;2720;52.396;10.064;2023-05-07T13:32:59;14.50;99.90
5394;DHT22;2720;52.396;10.064;2023-05-07T13:35:26;14.50;99.90
5394;DHT22;2720;52.396;10.064;2023-05-07T13:37:53;15.00;99.90
5394;DHT22;2720;52.396;10.064;2023-05-07T13:40:20;15.50;99.90
5394;DHT22;2720;52.396;10.064;2023-05-07T13:42:47;15.80;99.90
5394;DHT22;2720;52.396;10.064;2023-05-07T13:45:14;15.50;99.90
5394;DHT22;2720;52.396;10.064;2023-05-07T13:47:42;15.10;99.90
5394;DHT22;2720;52.396;10.064;2023-05-07T13:50:11;14.70;99.90
5394;DHT22;2720;52.396;10.064;2023-05-07T13:52:40;14.80;99.90
5394;DHT22;2720;52.396;10.064;2023-05-07T13:55:08;14.70;99.90
5394;DHT22;2720;52.396;10.064;2023-05-07T13:57:36;14.70;99.90
5394;DHT22;2720;52.396;10.064;2023-05-07T14:00:03;14.70;99.90
5394;DHT22;2720;52.396;10.064;2023-05-07T14:02:31;14.80;99.90
5394;DHT22;2720;52.396;10.064;2023-05-07T14:04:58;14.70;99.90
5394;DHT22;2720;52.396;10.064;2023-05-07T14:07:26;14.70;99.90
5394;DHT22;2720;52.396;10.064;2023-05-07T14:09:54;14.70;99.90
5394;DHT22;2720;52.396;10.064;2023-05-07T14:12:21;14.70;99.90
5394;DHT22;2720;52.396;10.064;2023-05-07T14:14:48;15.00;99.90
5394;DHT22;2720;52.396;10.064;2023-05-07T14:17:15;15.10;99.90
5394;DHT22;2720;52.396;10.064;2023-05-07T14:19:42;14.90;99.90
5394;DHT22;2720;52.396;10.064;2023-05-07T14:22:09;14.90;99.90
5394;DHT22;2720;52.396;10.064;2023-05-07T14:24:38;14.80;99.90
5394;DHT22;2720;52.396;10.064;2023-05-07T14:27:05;14.90;99.90
5394;DHT22;2720;52.396;10.064;2023-05-07T14:29:32;15.10;99.90
5394;DHT22;2720;52.396;10.064;2023-05-07T14:32:01;15.10;99.90
5394;DHT22;2720;52.396;10.064;2023-05-07T14:34:28;15.00;99.90
5394;DHT22;2720;52.396;10.064;2023-05-07T14:36:55;15.30;99.90
5394;DHT22;2720;52.396;10.064;2023-05-07T14:39:22;15.30;99.90
5394;DHT22;2720;52.396;10.064;2023-05-07T14:41:51;14.90;99.90
5394;DHT22;2720;52.396;10.064;2023-05-07T14:44:20;14.80;99.90
5394;DHT22;2720;52.396;10.064;2023-05-07T14:46:47;14.80;99.90
5394;DHT22;2720;52.396;10.064;2023-05-07T14:49:14;14.70;99.90
5394;DHT22;2720;52.396;10.064;2023-05-07T14:51:43;14.90;99.90
5394;DHT22;2720;52.396;10.064;2023-05-07T14:54:11;15.10;99.90
5394;DHT22;2720;52.396;10.064;2023-05-07T14:56:38;15.00;99.90
5394;DHT22;2720;52.396;10.064;2023-05-07T14:59:06;14.70;99.90
5394;DHT22;2720;52.396;10.064;2023-05-07T15:01:34;14.80;99.90
5394;DHT22;2720;52.396;10.064;2023-05-07T15:04:03;14.70;99.90
5394;DHT22;2720;52.396;10.064;2023-05-07T15:06:30;14.70;99.90
5394;DHT22;2720;52.396;10.064;2023-05-07T15:08:57;14.90;99.90
5394;DHT22;2720;52.396;10.064;2023-05-07T15:11:25;15.00;99.90
5394;DHT22;2720;52.396;10.064;2023-05-07T15:13:52;12.40;99.90
5394;DHT22;2720;52.396;10.064;2023-05-07T15:16:20;15.70;99.90
5394;DHT22;2720;52.396;10.064;2023-05-07T15:18:49;15.70;99.90
5394;DHT22;2720;52.396;10.064;2023-05-07T15:21:16;15.40;99.90
5394;DHT22;2720;52.396;10.064;2023-05-07T15:23:43;15.10;99.90
5394;DHT22;2720;52.396;10.064;2023-05-07T15:26:10;15.10;99.90
5394;DHT22;2720;52.396;10.064;2023-05-07T15:28:37;14.90;99.90
5394;DHT22;2720;52.396;10.064;2023-05-07T15:31:05;14.80;99.90
5394;DHT22;2720;52.396;10.064;2023-05-07T15:33:34;14.60;99.90
5394;DHT22;2720;52.396;10.064;2023-05-07T15:36:01;14.50;99.90
5394;DHT22;2720;52.396;10.064;2023-05-07T15:38:28;14.30;99.90
5394;DHT22;2720;52.396;10.064;2023-05-07T15:40:55;14.30;99.90
5394;DHT22;2720;52.396;10.064;2023-05-07T15:43:22;14.40;99.90
5394;DHT22;2720;52.396;10.064;2023-05-07T15:45:50;14.40;99.90
5394;DHT22;2720;52.396;10.064;2023-05-07T15:48:18;14.40;99.90
5394;DHT22;2720;52.396;10.064;2023-05-07T15:50:47;14.50;99.90
5394;DHT22;2720;52.396;10.064;2023-05-07T15:53:13;14.30;99.90
5394;DHT22;2720;52.396;10.064;2023-05-07T15:55:42;14.00;99.90
5394;DHT22;2720;52.396;10.064;2023-05-07T15:58:09;13.90;99.90